sensor_id;sensor_type;location;lat;lon;timestamp;P1;durP1;ratioP1;P2;durP2;ratioP2
20846;SDS011;10584;50.854;12.902;2023-04-01T00:02:46;4.57;;;1.13;;
20846;SDS011;10584;50.854;12.902;2023-04-01T00:08:08;1.90;;;1.10;;
20846;SDS011;10584;50.854;12.902;2023-04-01T00:13:30;2.53;;;1.30;;
20846;SDS011;10584;50.854;12.902;2023-04-01T00:18:52;5.80;;;1.37;;
20846;SDS011;10584;50.854;12.902;2023-04-01T00:24:14;2.53;;;1.20;;
20846;SDS011;10584;50.854;12.902;2023-04-01T00:29:35;2.57;;;1.30;;
20846;SDS011;10584;50.854;12.902;2023-04-01T00:34:57;5.97;;;1.27;;
20846;SDS011;10584;50.854;12.902;2023-04-01T00:40:31;2.63;;;1.20;;
20846;SDS011;10584;50.854;12.902;2023-04-01T00:45:58;1.93;;;1.03;;
20846;SDS011;10584;50.854;12.902;2023-04-01T00:51:20;4.30;;;1.30;;
20846;SDS011;10584;50.854;12.902;2023-04-01T00:56:46;3.60;;;1.40;;
20846;SDS011;10584;50.854;12.902;2023-04-01T01:02:29;4.83;;;1.23;;
20846;SDS011;10584;50.854;12.902;2023-04-01T01:14:05;3.23;;;1.27;;
20846;SDS011;10584;50.854;12.902;2023-04-01T01:31:07;5.63;;;1.43;;
20846;SDS011;10584;50.854;12.902;2023-04-01T01:36:31;5.43;;;1.13;;
20846;SDS011;10584;50.854;12.902;2023-04-01T01:42:02;11.83;;;1.70;;
20846;SDS011;10584;50.854;12.902;2023-04-01T01:47:28;5.70;;;1.53;;
20846;SDS011;10584;50.854;12.902;2023-04-01T01:52:50;3.40;;;1.40;;
20846;SDS011;10584;50.854;12.902;2023-04-01T01:58:22;7.87;;;1.50;;
20846;SDS011;10584;50.854;12.902;2023-04-01T02:03:49;6.73;;;1.80;;
20846;SDS011;10584;50.854;12.902;2023-04-01T02:09:13;7.07;;;1.90;;
20846;SDS011;10584;50.854;12.902;2023-04-01T02:14:50;4.67;;;1.60;;
20846;SDS011;10584;50.854;12.902;2023-04-01T02:20:15;3.90;;;1.60;;
20846;SDS011;10584;50.854;12.902;2023-04-01T02:25:39;8.07;;;2.00;;
20846;SDS011;10584;50.854;12.902;2023-04-01T02:31:03;6.53;;;2.13;;
20846;SDS011;10584;50.854;12.902;2023-04-01T02:36:25;5.03;;;1.60;;
20846;SDS011;10584;50.854;12.902;2023-04-01T02:41:47;3.17;;;1.30;;
20846;SDS011;10584;50.854;12.902;2023-04-01T02:47:08;3.30;;;1.47;;
20846;SDS011;10584;50.854;12.902;2023-04-01T02:52:30;3.53;;;1.60;;
20846;SDS011;10584;50.854;12.902;2023-04-01T02:57:54;3.53;;;1.53;;
20846;SDS011;10584;50.854;12.902;2023-04-01T03:03:15;4.60;;;1.57;;
20846;SDS011;10584;50.854;12.902;2023-04-01T03:08:36;5.47;;;1.60;;
20846;SDS011;10584;50.854;12.902;2023-04-01T03:13:58;4.40;;;1.60;;
20846;SDS011;10584;50.854;12.902;2023-04-01T03:19:20;8.47;;;1.60;;
20846;SDS011;10584;50.854;12.902;2023-04-01T03:24:41;4.07;;;1.50;;
20846;SDS011;10584;50.854;12.902;2023-04-01T03:30:04;4.50;;;1.30;;
20846;SDS011;10584;50.854;12.902;2023-04-01T03:35:34;8.27;;;1.37;;
20846;SDS011;10584;50.854;12.902;2023-04-01T03:40:56;3.73;;;1.40;;
20846;SDS011;10584;50.854;12.902;2023-04-01T03:46:17;4.07;;;1.37;;
20846;SDS011;10584;50.854;12.902;2023-04-01T03:51:40;3.27;;;1.30;;
20846;SDS011;10584;50.854;12.902;2023-04-01T03:57:05;6.43;;;1.23;;
20846;SDS011;10584;50.854;12.902;2023-04-01T04:02:28;5.63;;;1.20;;
20846;SDS011;10584;50.854;12.902;2023-04-01T04:07:49;4.53;;;1.30;;
20846;SDS011;10584;50.854;12.902;2023-04-01T04:13:12;2.67;;;1.20;;
20846;SDS011;10584;50.854;12.902;2023-04-01T04:18:41;4.87;;;1.37;;
20846;SDS011;10584;50.854;12.902;2023-04-01T04:24:03;7.10;;;1.30;;
20846;SDS011;10584;50.854;12.902;2023-04-01T04:29:45;4.47;;;1.37;;
20846;SDS011;10584;50.854;12.902;2023-04-01T04:35:06;3.97;;;1.20;;
20846;SDS011;10584;50.854;12.902;2023-04-01T04:40:28;3.93;;;1.23;;
20846;SDS011;10584;50.854;12.902;2023-04-01T04:45:49;2.87;;;1.20;;
20846;SDS011;10584;50.854;12.902;2023-04-01T04:51:18;5.37;;;1.23;;
20846;SDS011;10584;50.854;12.902;2023-04-01T04:56:40;4.47;;;1.30;;
20846;SDS011;10584;50.854;12.902;2023-04-01T05:02:03;4.97;;;1.13;;
20846;SDS011;10584;50.854;12.902;2023-04-01T05:07:24;5.47;;;1.70;;
20846;SDS011;10584;50.854;12.902;2023-04-01T05:12:46;4.57;;;1.57;;
20846;SDS011;10584;50.854;12.902;2023-04-01T05:18:11;6.33;;;1.43;;
20846;SDS011;10584;50.854;12.902;2023-04-01T05:23:32;3.63;;;1.33;;
20846;SDS011;10584;50.854;12.902;2023-04-01T05:28:55;7.40;;;1.50;;
20846;SDS011;10584;50.854;12.902;2023-04-01T05:34:16;4.10;;;1.20;;
20846;SDS011;10584;50.854;12.902;2023-04-01T05:39:38;6.80;;;1.43;;
20846;SDS011;10584;50.854;12.902;2023-04-01T05:45:00;4.83;;;1.53;;
20846;SDS011;10584;50.854;12.902;2023-04-01T05:50:54;6.73;;;1.33;;
20846;SDS011;10584;50.854;12.902;2023-04-01T05:56:15;5.87;;;1.40;;
20846;SDS011;10584;50.854;12.902;2023-04-01T06:01:41;5.17;;;1.07;;
20846;SDS011;10584;50.854;12.902;2023-04-01T06:07:37;3.73;;;1.30;;
20846;SDS011;10584;50.854;12.902;2023-04-01T06:13:26;5.37;;;1.60;;
20846;SDS011;10584;50.854;12.902;2023-04-01T06:18:47;4.67;;;1.10;;
20846;SDS011;10584;50.854;12.902;2023-04-01T06:24:26;3.47;;;1.20;;
20846;SDS011;10584;50.854;12.902;2023-04-01T06:59:10;3.13;;;1.30;;
20846;SDS011;10584;50.854;12.902;2023-04-01T07:04:39;2.87;;;1.20;;
20846;SDS011;10584;50.854;12.902;2023-04-01T07:10:13;5.10;;;1.20;;
20846;SDS011;10584;50.854;12.902;2023-04-01T07:16:33;5.07;;;1.30;;
20846;SDS011;10584;50.854;12.902;2023-04-01T07:21:56;4.73;;;1.20;;
20846;SDS011;10584;50.854;12.902;2023-04-01T07:27:52;2.23;;;1.10;;
20846;SDS011;10584;50.854;12.902;2023-04-01T07:33:22;5.07;;;1.17;;
20846;SDS011;10584;50.854;12.902;2023-04-01T07:45:23;4.70;;;1.30;;
20846;SDS011;10584;50.854;12.902;2023-04-01T07:57:30;3.87;;;0.90;;
20846;SDS011;10584;50.854;12.902;2023-04-01T08:21:01;3.77;;;1.17;;
20846;SDS011;10584;50.854;12.902;2023-04-01T08:26:34;2.23;;;1.23;;
20846;SDS011;10584;50.854;12.902;2023-04-01T08:37:34;1.00;;;0.90;;
20846;SDS011;10584;50.854;12.902;2023-04-01T09:28:43;1.73;;;0.70;;
20846;SDS011;10584;50.854;12.902;2023-04-01T09:34:25;2.73;;;0.80;;
20846;SDS011;10584;50.854;12.902;2023-04-01T09:40:08;0.70;;;0.70;;
20846;SDS011;10584;50.854;12.902;2023-04-01T09:45:44;2.17;;;0.60;;
20846;SDS011;10584;50.854;12.902;2023-04-01T10:14:36;2.10;;;0.70;;
20846;SDS011;10584;50.854;12.902;2023-04-01T11:20:02;1.33;;;0.80;;
20846;SDS011;10584;50.854;12.902;2023-04-01T11:25:56;1.57;;;0.53;;
20846;SDS011;10584;50.854;12.902;2023-04-01T11:43:38;2.60;;;0.80;;
20846;SDS011;10584;50.854;12.902;2023-04-01T12:00:39;2.77;;;0.97;;
20846;SDS011;10584;50.854;12.902;2023-04-01T12:11:52;1.50;;;0.70;;
20846;SDS011;10584;50.854;12.902;2023-04-01T13:26:27;2.83;;;1.23;;
20846;SDS011;10584;50.854;12.902;2023-04-01T13:43:21;2.03;;;0.87;;
20846;SDS011;10584;50.854;12.902;2023-04-01T14:00:42;1.43;;;0.70;;
20846;SDS011;10584;50.854;12.902;2023-04-01T14:12:04;1.13;;;0.90;;
20846;SDS011;10584;50.854;12.902;2023-04-01T14:52:08;1.00;;;0.70;;
20846;SDS011;10584;50.854;12.902;2023-04-01T14:58:07;1.17;;;0.70;;
20846;SDS011;10584;50.854;12.902;2023-04-01T15:43:24;3.00;;;0.80;;
20846;SDS011;10584;50.854;12.902;2023-04-01T16:34:29;5.07;;;2.83;;
20846;SDS011;10584;50.854;12.902;2023-04-01T16:40:22;4.00;;;1.20;;
20846;SDS011;10584;50.854;12.902;2023-04-01T17:03:27;2.47;;;1.67;;
20846;SDS011;10584;50.854;12.902;2023-04-01T17:26:23;3.60;;;1.50;;
20846;SDS011;10584;50.854;12.902;2023-04-01T17:32:31;2.43;;;1.43;;
20846;SDS011;10584;50.854;12.902;2023-04-01T18:06:21;4.80;;;1.70;;
20846;SDS011;10584;50.854;12.902;2023-04-01T18:12:06;1.50;;;1.20;;
20846;SDS011;10584;50.854;12.902;2023-04-01T18:17:44;3.37;;;1.50;;
20846;SDS011;10584;50.854;12.902;2023-04-01T18:23:29;1.47;;;1.10;;
20846;SDS011;10584;50.854;12.902;2023-04-01T18:29:32;2.50;;;1.30;;
20846;SDS011;10584;50.854;12.902;2023-04-01T18:47:02;5.43;;;3.13;;
20846;SDS011;10584;50.854;12.902;2023-04-01T18:52:43;7.93;;;3.90;;
20846;SDS011;10584;50.854;12.902;2023-04-01T18:58:11;6.90;;;3.73;;
20846;SDS011;10584;50.854;12.902;2023-04-01T19:03:48;5.13;;;2.83;;
20846;SDS011;10584;50.854;12.902;2023-04-01T19:09:48;5.63;;;2.37;;
20846;SDS011;10584;50.854;12.902;2023-04-01T19:15:22;4.50;;;2.63;;
20846;SDS011;10584;50.854;12.902;2023-04-01T19:20:47;4.60;;;2.93;;
20846;SDS011;10584;50.854;12.902;2023-04-01T19:26:20;7.67;;;3.13;;
20846;SDS011;10584;50.854;12.902;2023-04-01T19:38:11;5.57;;;3.10;;
20846;SDS011;10584;50.854;12.902;2023-04-01T19:54:53;3.50;;;2.63;;
20846;SDS011;10584;50.854;12.902;2023-04-01T20:12:00;5.50;;;3.47;;
20846;SDS011;10584;50.854;12.902;2023-04-01T20:17:44;5.67;;;3.30;;
20846;SDS011;10584;50.854;12.902;2023-04-01T20:51:37;5.03;;;3.23;;
20846;SDS011;10584;50.854;12.902;2023-04-01T20:57:14;5.97;;;3.73;;
20846;SDS011;10584;50.854;12.902;2023-04-01T21:19:35;5.93;;;2.90;;
20846;SDS011;10584;50.854;12.902;2023-04-01T21:41:44;4.63;;;3.20;;
20846;SDS011;10584;50.854;12.902;2023-04-01T21:47:34;4.83;;;3.30;;
20846;SDS011;10584;50.854;12.902;2023-04-01T22:44:02;1.63;;;1.20;;
20846;SDS011;10584;50.854;12.902;2023-04-01T22:49:26;0.90;;;0.90;;
20846;SDS011;10584;50.854;12.902;2023-04-01T22:55:00;2.57;;;1.10;;
20846;SDS011;10584;50.854;12.902;2023-04-01T23:00:28;1.70;;;1.27;;
20846;SDS011;10584;50.854;12.902;2023-04-01T23:06:03;3.67;;;1.60;;
20846;SDS011;10584;50.854;12.902;2023-04-01T23:17:19;3.17;;;2.00;;
20846;SDS011;10584;50.854;12.902;2023-04-01T23:29:11;3.63;;;1.90;;
20846;SDS011;10584;50.854;12.902;2023-04-01T23:34:35;4.87;;;1.90;;
20846;SDS011;10584;50.854;12.902;2023-04-01T23:39:57;4.10;;;2.20;;
20846;SDS011;10584;50.854;12.902;2023-04-01T23:45:21;3.17;;;2.10;;
20846;SDS011;10584;50.854;12.902;2023-04-01T23:50:43;3.40;;;2.30;;
20846;SDS011;10584;50.854;12.902;2023-04-01T23:56:05;3.80;;;1.90;;
